Time;durP1;ratioP1;P1;durP2;ratioP2;P2;SDS_P1;SDS_P2;PMS_P1;PMS_P2;Temp;Humidity;BMP_temperature;BMP_pressure;BME280_temperature;BME280_humidity;BME280_pressure;Samples;Min_cycle;Max_cycle;Signal;HPM_P1;HPM_P2
2024/02/10 00:01:17;;;;;;;;;;;;;;;5.56;92.26;98593.72;4195211;28;20455;-86
2024/02/10 00:03:39;;;;;;;;;;;;;;;5.57;92.58;98589.19;4168173;28;19936;-86
2024/02/10 00:06:00;;;;;;;;;;;;;;;5.56;92.48;98596.41;4195453;28;20014;-87
2024/02/10 00:08:22;;;;;;;;;;;;;;;5.58;92.73;98597.03;4210735;28;19934;-85
2024/02/10 00:10:44;;;;;;;;;;;;;;;5.58;92.50;98591.66;4194552;28;19983;-87
2024/02/10 00:13:05;;;;;;;;;;;;;;;5.59;92.47;98596.00;4210094;28;19932;-87
2024/02/10 00:15:25;;;;;;;;;;;;;;;5.59;92.67;98596.00;4196153;28;19935;-87
2024/02/10 00:17:46;;;;;;;;;;;;;;;5.60;92.46;98596.81;4213100;28;19931;-87
2024/02/10 00:20:09;;;;;;;;;;;;;;;5.63;92.55;98595.56;4195967;28;20351;-87
2024/02/10 00:22:30;;;;;;;;;;;;;;;5.64;93.02;98599.91;4195822;28;20275;-87
2024/02/10 00:24:51;;;;;;;;;;;;;;;5.63;92.76;98601.78;4195436;28;19934;-88
2024/02/10 00:27:16;;;;;;;;;;;;;;;5.64;92.72;98599.91;4210517;28;19978;-88
2024/02/10 00:29:38;;;;;;;;;;;;;;;5.65;93.09;98597.03;4196602;28;20075;-88
2024/02/10 00:32:02;;;;;;;;;;;;;;;5.65;92.92;98599.72;4195628;28;19931;-87
2024/02/10 00:34:28;;;;;;;;;;;;;;;5.65;92.79;98596.22;4211240;28;19951;-87
2024/02/10 00:36:49;;;;;;;;;;;;;;;5.65;92.81;98596.22;4182286;28;19931;-87
2024/02/10 00:39:10;;;;;;;;;;;;;;;5.66;93.11;98601.38;4196305;28;19955;-86
2024/02/10 00:41:33;;;;;;;;;;;;;;;5.67;93.13;98600.34;4190357;28;19931;-86
2024/02/10 00:43:55;;;;;;;;;;;;;;;5.69;93.01;98601.00;4196240;28;19971;-86
2024/02/10 00:46:16;;;;;;;;;;;;;;;5.70;93.37;98605.31;4188806;28;20011;-86
2024/02/10 00:48:37;;;;;;;;;;;;;;;5.70;93.18;98599.13;4199592;28;19935;-87
2024/02/10 00:51:00;;;;;;;;;;;;;;;5.70;93.09;98604.50;4197766;28;19931;-88
2024/02/10 00:53:21;;;;;;;;;;;;;;;5.70;92.93;98593.78;4197377;28;20329;-88
2024/02/10 00:55:43;;;;;;;;;;;;;;;5.71;92.88;98601.63;4213416;28;19935;-88
2024/02/10 00:58:06;;;;;;;;;;;;;;;5.71;93.24;98598.94;4198174;28;19936;-88
2024/02/10 01:00:31;;;;;;;;;;;;;;;5.72;93.06;98597.91;4192213;28;20028;-88
2024/02/10 01:02:54;;;;;;;;;;;;;;;5.73;93.41;98596.06;4213055;28;19989;-88
2024/02/10 01:05:15;;;;;;;;;;;;;;;5.74;93.55;98593.19;4199522;28;19935;-88
2024/02/10 01:07:36;;;;;;;;;;;;;;;5.75;93.39;98596.69;4213289;28;19982;-88
2024/02/10 01:09:57;;;;;;;;;;;;;;;5.75;93.61;98600.19;4184838;28;20035;-89
2024/02/10 01:12:18;;;;;;;;;;;;;;;5.76;93.59;98596.47;4183626;28;20421;-91
2024/02/10 01:14:40;;;;;;;;;;;;;;;5.77;94.01;98592.78;4184361;28;19936;-90
2024/02/10 01:17:04;;;;;;;;;;;;;;;5.79;94.06;98600.63;4192443;28;20415;-89
2024/02/10 01:19:26;;;;;;;;;;;;;;;5.78;94.07;98601.63;4213316;28;19996;-89
2024/02/10 01:21:47;;;;;;;;;;;;;;;5.80;94.22;98599.63;4192027;28;19963;-89
2024/02/10 01:24:09;;;;;;;;;;;;;;;5.80;94.12;98594.25;4213528;28;19931;-90
2024/02/10 01:26:30;;;;;;;;;;;;;;;5.81;93.96;98598.56;4198984;28;19936;-89
2024/02/10 01:28:50;;;;;;;;;;;;;;;5.83;94.49;98595.69;4213602;28;19931;-91
2024/02/10 01:31:11;;;;;;;;;;;;;;;5.84;94.70;98590.13;4198825;28;19995;-91
2024/02/10 01:33:34;;;;;;;;;;;;;;;5.85;94.87;98597.16;4213234;28;19931;-89
2024/02/10 01:35:54;;;;;;;;;;;;;;;5.86;94.69;98592.63;4199138;28;19935;-90
2024/02/10 01:38:16;;;;;;;;;;;;;;;5.86;94.74;98590.78;4213152;28;19982;-91
2024/02/10 01:40:42;;;;;;;;;;;;;;;5.86;94.70;98587.25;4198900;28;19936;-89
2024/02/10 01:43:06;;;;;;;;;;;;;;;5.87;94.78;98584.38;4198478;28;20522;-88
2024/02/10 01:45:27;;;;;;;;;;;;;;;5.88;94.76;98598.63;4213048;28;20028;-89
2024/02/10 01:47:48;;;;;;;;;;;;;;;5.89;94.81;98592.22;4214088;28;20015;-88
2024/02/10 01:50:10;;;;;;;;;;;;;;;5.91;95.21;98591.00;4212404;28;20649;-87
2024/02/10 01:52:31;;;;;;;;;;;;;;;5.92;95.25;98587.31;4197896;28;19947;-86
2024/02/10 01:54:52;;;;;;;;;;;;;;;5.95;95.81;98591.41;4212384;28;20025;-89
2024/02/10 01:57:15;;;;;;;;;;;;;;;5.94;95.70;98598.63;4198539;28;19939;-88
2024/02/10 01:59:37;;;;;;;;;;;;;;;5.95;95.92;98591.41;4198177;28;20027;-86
2024/02/10 02:01:57;;;;;;;;;;;;;;;5.96;95.80;98593.09;4199235;28;19955;-86
2024/02/10 02:04:22;;;;;;;;;;;;;;;5.96;95.58;98598.44;4213354;28;19993;-86
2024/02/10 02:06:45;;;;;;;;;;;;;;;5.97;95.89;98604.66;4197776;28;20396;-88
2024/02/10 02:09:05;;;;;;;;;;;;;;;5.98;96.03;98588.38;4213483;28;19966;-90
2024/02/10 02:11:28;;;;;;;;;;;;;;;5.99;95.88;98591.88;4211662;28;20029;-88
2024/02/10 02:13:49;;;;;;;;;;;;;;;6.00;95.59;98596.22;4185015;28;20519;-88
2024/02/10 02:16:11;;;;;;;;;;;;;;;6.01;96.09;98590.66;4184792;28;20303;-88
2024/02/10 02:18:34;;;;;;;;;;;;;;;6.02;96.17;98595.00;4197582;28;20007;-87
2024/02/10 02:20:55;;;;;;;;;;;;;;;6.03;96.24;98595.81;4197062;28;19963;-88
2024/02/10 02:23:19;;;;;;;;;;;;;;;6.03;96.27;98590.44;4197895;28;20026;-88
2024/02/10 02:25:40;;;;;;;;;;;;;;;6.03;96.00;98583.22;4212368;28;19939;-87
2024/02/10 02:28:01;;;;;;;;;;;;;;;6.04;96.03;98590.25;4197946;28;20610;-88
2024/02/10 02:30:22;;;;;;;;;;;;;;;6.06;96.06;98590.88;4211483;28;19934;-87
2024/02/10 02:32:43;;;;;;;;;;;;;;;6.07;96.25;98589.84;4208175;28;19934;-88
2024/02/10 02:35:09;;;;;;;;;;;;;;;6.08;96.42;98580.78;4197872;28;19935;-88
2024/02/10 02:37:32;;;;;;;;;;;;;;;6.09;96.43;98589.66;4198476;28;20023;-87
2024/02/10 02:39:55;;;;;;;;;;;;;;;6.10;97.02;98592.13;4209519;28;19980;-88
2024/02/10 02:42:15;;;;;;;;;;;;;;;6.12;97.09;98587.38;4211231;28;20353;-87
2024/02/10 02:44:36;;;;;;;;;;;;;;;6.11;96.82;98588.44;4196204;28;19974;-88
2024/02/10 02:47:04;;;;;;;;;;;;;;;6.12;97.00;98586.56;4197301;28;20017;-87
2024/02/10 02:49:25;;;;;;;;;;;;;;;6.13;97.21;98588.22;4211903;28;19943;-88
2024/02/10 02:51:48;;;;;;;;;;;;;;;6.15;97.15;98580.81;4194072;28;19982;-86
2024/02/10 02:54:10;;;;;;;;;;;;;;;6.16;97.49;98586.97;4183553;28;19931;-87
2024/02/10 02:56:33;;;;;;;;;;;;;;;6.17;97.46;98586.78;4197417;28;19934;-86
2024/02/10 02:58:54;;;;;;;;;;;;;;;6.18;97.80;98585.75;4196840;28;19992;-87
2024/02/10 03:01:15;;;;;;;;;;;;;;;6.19;97.61;98594.63;4196467;28;19932;-87
2024/02/10 03:03:36;;;;;;;;;;;;;;;6.19;97.72;98589.25;4196559;28;20041;-86
2024/02/10 03:05:57;;;;;;;;;;;;;;;6.20;97.81;98589.06;4196476;28;20009;-86
2024/02/10 03:08:17;;;;;;;;;;;;;;;6.22;98.17;98583.50;4211087;28;19930;-88
2024/02/10 03:10:38;;;;;;;;;;;;;;;6.24;97.99;98590.31;4210183;28;21319;-87
2024/02/10 03:13:01;;;;;;;;;;;;;;;6.24;98.12;98590.31;4210112;28;20022;-86
2024/02/10 03:15:21;;;;;;;;;;;;;;;6.26;98.58;98590.94;4182835;28;19932;-88
2024/02/10 03:17:46;;;;;;;;;;;;;;;6.28;98.66;98591.56;4211697;28;19957;-87
2024/02/10 03:20:09;;;;;;;;;;;;;;;6.29;98.90;98595.09;4197187;28;20069;-87
2024/02/10 03:22:30;;;;;;;;;;;;;;;6.29;98.67;98581.69;4196567;28;19975;-87
2024/02/10 03:24:53;;;;;;;;;;;;;;;6.32;99.06;98586.63;4211157;28;19935;-88
2024/02/10 03:27:15;;;;;;;;;;;;;;;6.33;99.27;98588.28;4190041;28;20345;-88
2024/02/10 03:29:37;;;;;;;;;;;;;;;6.32;99.25;98590.13;4196429;28;19958;-87
2024/02/10 03:31:58;;;;;;;;;;;;;;;6.35;99.26;98585.38;4212108;28;19935;-87
2024/02/10 03:34:18;;;;;;;;;;;;;;;6.35;99.49;98580.88;4184980;28;19955;-87
2024/02/10 03:36:39;;;;;;;;;;;;;;;6.35;99.39;98588.91;4211978;28;20373;-88
2024/02/10 03:39:03;;;;;;;;;;;;;;;6.38;99.55;98587.66;4181548;28;19981;-86
2024/02/10 03:41:24;;;;;;;;;;;;;;;6.39;99.35;98587.47;4210644;28;19931;-86
2024/02/10 03:43:45;;;;;;;;;;;;;;;6.41;99.72;98587.25;4210982;28;19930;-86
2024/02/10 03:46:08;;;;;;;;;;;;;;;6.40;99.61;98586.44;4212100;28;20017;-86
2024/02/10 03:48:29;;;;;;;;;;;;;;;6.42;99.73;98580.88;4196104;28;19934;-86
2024/02/10 03:50:49;;;;;;;;;;;;;;;6.43;99.67;98572.63;4195675;28;20802;-87
2024/02/10 03:53:10;;;;;;;;;;;;;;;6.44;100.00;98581.50;4211976;28;20944;-87
2024/02/10 03:55:32;;;;;;;;;;;;;;;6.44;99.75;98576.97;4182470;28;19936;-86
2024/02/10 03:57:53;;;;;;;;;;;;;;;6.45;100.00;98578.59;4210955;28;19934;-86
2024/02/10 04:00:20;;;;;;;;;;;;;;;6.46;100.00;98576.78;4196438;28;20329;-86
2024/02/10 04:02:45;;;;;;;;;;;;;;;6.47;100.00;98573.03;4210800;28;19935;-86
2024/02/10 04:05:07;;;;;;;;;;;;;;;6.47;100.00;98565.00;4190621;28;20353;-86
2024/02/10 04:07:29;;;;;;;;;;;;;;;6.49;100.00;98579.03;4210815;28;19940;-85
2024/02/10 04:09:50;;;;;;;;;;;;;;;6.51;100.00;98571.63;4195668;28;20369;-86
2024/02/10 04:12:11;;;;;;;;;;;;;;;6.51;100.00;98573.47;4196308;28;20030;-86
2024/02/10 04:14:32;;;;;;;;;;;;;;;6.52;100.00;98572.44;4195442;28;19935;-86
2024/02/10 04:16:53;;;;;;;;;;;;;;;6.52;100.00;98567.91;4211739;28;20417;-86
2024/02/10 04:19:15;;;;;;;;;;;;;;;6.54;100.00;98570.38;4210687;28;20432;-86
2024/02/10 04:21:38;;;;;;;;;;;;;;;6.55;100.00;98563.97;4212883;28;19981;-85
2024/02/10 04:23:59;;;;;;;;;;;;;;;6.56;100.00;98563.78;4199927;28;19935;-86
2024/02/10 04:26:20;;;;;;;;;;;;;;;6.56;100.00;98562.97;4199814;28;20742;-87
2024/02/10 04:28:40;;;;;;;;;;;;;;;6.57;100.00;98560.06;4198529;28;19935;-86
2024/02/10 04:31:01;;;;;;;;;;;;;;;6.58;100.00;98556.38;4213463;28;20279;-86
2024/02/10 04:33:22;;;;;;;;;;;;;;;6.59;100.00;98559.88;4199380;28;19935;-86
2024/02/10 04:35:45;;;;;;;;;;;;;;;6.59;100.00;98560.69;4213906;28;19987;-90
2024/02/10 04:38:08;;;;;;;;;;;;;;;6.60;100.00;98554.31;4180146;28;20455;-87
2024/02/10 04:40:29;;;;;;;;;;;;;;;6.62;100.00;98556.78;4199477;28;19970;-88
2024/02/10 04:42:53;;;;;;;;;;;;;;;6.61;100.00;98550.56;4199798;28;19936;-88
2024/02/10 04:45:22;;;;;;;;;;;;;;;6.62;100.00;98549.53;4214386;28;19931;-87
2024/02/10 04:47:43;;;;;;;;;;;;;;;6.63;100.00;98553.88;4199027;28;20378;-88
2024/02/10 04:50:04;;;;;;;;;;;;;;;6.65;100.00;98549.13;4198565;28;19970;-87
2024/02/10 04:52:26;;;;;;;;;;;;;;;6.65;100.00;98548.31;4214439;28;20470;-88
2024/02/10 04:54:53;;;;;;;;;;;;;;;6.64;100.00;98552.03;4199744;28;19970;-87
2024/02/10 04:57:14;;;;;;;;;;;;;;;6.65;100.00;98551.00;4199580;28;19935;-88
2024/02/10 04:59:35;;;;;;;;;;;;;;;6.65;100.00;98551.00;4199175;28;20477;-87
2024/02/10 05:01:56;;;;;;;;;;;;;;;6.65;100.00;98546.44;4196542;28;19931;-88
2024/02/10 05:04:17;;;;;;;;;;;;;;;6.66;100.00;98542.75;4200005;28;19932;-89
2024/02/10 05:06:38;;;;;;;;;;;;;;;6.67;100.00;98546.25;4179045;28;19959;-88
2024/02/10 05:09:01;;;;;;;;;;;;;;;6.67;100.00;98546.25;4186186;28;20645;-88
2024/02/10 05:11:22;;;;;;;;;;;;;;;6.68;100.00;98550.59;4211535;28;20019;-88
2024/02/10 05:13:42;;;;;;;;;;;;;;;6.69;100.00;98544.19;4199225;28;19935;-88
2024/02/10 05:16:04;;;;;;;;;;;;;;;6.71;100.00;98546.66;4192288;28;19958;-87
2024/02/10 05:18:25;;;;;;;;;;;;;;;6.71;100.00;98544.81;4192492;28;19931;-87
2024/02/10 05:20:46;;;;;;;;;;;;;;;6.71;100.00;98550.19;4214072;28;20002;-87
2024/02/10 05:23:07;;;;;;;;;;;;;;;6.72;100.00;98546.44;4184952;28;20064;-87
2024/02/10 05:25:35;;;;;;;;;;;;;;;6.74;100.00;98546.25;4198687;28;19936;-87
2024/02/10 05:28:00;;;;;;;;;;;;;;;6.76;100.00;98552.25;4213865;28;19935;-87
2024/02/10 05:30:23;;;;;;;;;;;;;;;6.74;100.00;98551.59;4198920;28;19998;-87
2024/02/10 05:32:45;;;;;;;;;;;;;;;6.76;100.00;98546.88;4197939;28;20025;-87
2024/02/10 05:35:10;;;;;;;;;;;;;;;6.76;100.00;98552.25;4199210;28;19988;-87
2024/02/10 05:37:38;;;;;;;;;;;;;;;6.77;100.00;98552.03;4192016;28;19939;-88
2024/02/10 05:39:59;;;;;;;;;;;;;;;6.78;100.00;98558.22;4199105;28;19975;-87
2024/02/10 05:42:21;;;;;;;;;;;;;;;6.79;100.00;98566.06;4212218;28;19935;-87
2024/02/10 05:44:42;;;;;;;;;;;;;;;6.82;100.00;98567.53;4185159;28;20011;-88
2024/02/10 05:47:04;;;;;;;;;;;;;;;6.81;100.00;98555.94;4212250;28;20286;-88
2024/02/10 05:49:25;;;;;;;;;;;;;;;6.85;100.00;98561.75;4198651;28;20378;-88
2024/02/10 05:51:46;;;;;;;;;;;;;;;6.84;100.00;98566.28;4190118;28;20496;-87
2024/02/10 05:54:07;;;;;;;;;;;;;;;6.85;100.00;98564.44;4212701;28;19966;-87
2024/02/10 05:56:29;;;;;;;;;;;;;;;6.86;100.00;98560.69;4198202;28;19970;-87
2024/02/10 05:58:52;;;;;;;;;;;;;;;6.89;100.00;98564.84;4184939;28;20035;-88
2024/02/10 06:01:14;;;;;;;;;;;;;;;6.90;100.00;98561.13;4197006;28;19951;-89
2024/02/10 06:03:35;;;;;;;;;;;;;;;6.90;100.00;98559.25;4184525;28;19934;-88
2024/02/10 06:05:55;;;;;;;;;;;;;;;6.92;100.00;98567.09;4198105;28;19981;-87
2024/02/10 06:08:16;;;;;;;;;;;;;;;6.93;100.00;98571.41;4197505;28;19946;-87
2024/02/10 06:10:37;;;;;;;;;;;;;;;6.92;100.00;98565.25;4197848;28;19975;-87
2024/02/10 06:12:58;;;;;;;;;;;;;;;6.93;100.00;98560.69;4196024;28;19958;-87
2024/02/10 06:15:23;;;;;;;;;;;;;;;6.93;100.00;98561.53;4204870;28;19994;-87
2024/02/10 06:17:45;;;;;;;;;;;;;;;6.94;100.00;98565.84;4196637;28;20449;-87
2024/02/10 06:20:12;;;;;;;;;;;;;;;6.97;100.00;98559.25;4191427;28;19935;-88
2024/02/10 06:22:34;;;;;;;;;;;;;;;6.98;100.00;98566.28;4212094;28;19958;-87
2024/02/10 06:24:56;;;;;;;;;;;;;;;6.98;100.00;98571.66;4197347;28;20011;-88
2024/02/10 06:27:20;;;;;;;;;;;;;;;6.97;100.00;98576.16;4196623;28;19931;-87
2024/02/10 06:29:40;;;;;;;;;;;;;;;6.98;100.00;98580.53;4196214;28;19984;-88
2024/02/10 06:32:06;;;;;;;;;;;;;;;6.99;100.00;98584.00;4197155;28;19959;-88
2024/02/10 06:34:27;;;;;;;;;;;;;;;6.99;100.00;98590.22;4198596;28;20022;-86
2024/02/10 06:36:48;;;;;;;;;;;;;;;6.99;100.00;98587.56;4213766;28;19942;-87
2024/02/10 06:39:09;;;;;;;;;;;;;;;7.01;100.00;98590.03;4198354;28;20469;-87
2024/02/10 06:41:31;;;;;;;;;;;;;;;7.01;100.00;98598.91;4211944;28;19990;-86
2024/02/10 06:43:52;;;;;;;;;;;;;;;7.03;100.00;98609.44;4196311;28;19935;-87
2024/02/10 06:46:13;;;;;;;;;;;;;;;7.03;100.00;98610.25;4198459;28;19935;-87
2024/02/10 06:48:36;;;;;;;;;;;;;;;7.04;100.00;98608.41;4197035;28;19935;-85
2024/02/10 06:50:58;;;;;;;;;;;;;;;7.04;100.00;98608.41;4203834;28;19974;-87
2024/02/10 06:53:21;;;;;;;;;;;;;;;7.04;100.00;98605.72;4197278;28;20018;-91
2024/02/10 06:55:42;;;;;;;;;;;;;;;7.04;100.00;98606.53;4213676;28;20621;-92
2024/02/10 06:58:03;;;;;;;;;;;;;;;7.06;100.00;98605.50;4184743;28;20322;-94
2024/02/10 07:00:24;;;;;;;;;;;;;;;7.06;100.00;98613.56;4199469;28;19986;-94
2024/02/10 07:02:45;;;;;;;;;;;;;;;7.07;100.00;98616.03;4197636;28;20441;-87
2024/02/10 07:05:11;;;;;;;;;;;;;;;7.08;100.00;98616.84;4212109;28;19931;-91
2024/02/10 07:07:32;;;;;;;;;;;;;;;7.09;100.00;98623.88;4211844;28;19931;-89
2024/02/10 07:09:59;;;;;;;;;;;;;;;7.09;100.00;98627.38;4197426;28;20011;-91
2024/02/10 07:12:20;;;;;;;;;;;;;;;7.09;100.00;98624.69;4192082;28;19974;-90
2024/02/10 07:14:45;;;;;;;;;;;;;;;7.09;100.00;98632.75;4198863;28;20449;-91
2024/02/10 07:17:07;;;;;;;;;;;;;;;7.08;100.00;98633.78;4198584;28;19948;-89
2024/02/10 07:19:35;;;;;;;;;;;;;;;7.10;100.00;98633.56;4197456;28;19970;-88
2024/02/10 07:21:59;;;;;;;;;;;;;;;7.10;100.00;98636.25;4210664;28;20374;-86
2024/02/10 07:24:23;;;;;;;;;;;;;;;7.11;100.00;98635.25;4195774;28;19954;-87
2024/02/10 07:26:47;;;;;;;;;;;;;;;7.11;100.00;98644.09;4196961;28;19931;-89
2024/02/10 07:29:11;;;;;;;;;;;;;;;7.11;100.00;98649.47;4198484;28;19946;-89
2024/02/10 07:31:33;;;;;;;;;;;;;;;7.12;100.00;98658.38;4196167;28;19979;-89
2024/02/10 07:33:58;;;;;;;;;;;;;;;7.11;100.00;98654.84;4197625;28;19932;-87
2024/02/10 07:36:20;;;;;;;;;;;;;;;7.12;100.00;98658.38;4197251;28;19974;-87
2024/02/10 07:38:42;;;;;;;;;;;;;;;7.13;100.00;98651.94;4197768;28;19993;-86
2024/02/10 07:41:03;;;;;;;;;;;;;;;7.14;100.00;98654.44;4211020;28;19947;-87
2024/02/10 07:43:27;;;;;;;;;;;;;;;7.14;100.00;98657.13;4197087;28;20010;-87
2024/02/10 07:45:48;;;;;;;;;;;;;;;7.17;100.00;98663.94;4198133;28;20342;-87
2024/02/10 07:48:09;;;;;;;;;;;;;;;7.17;100.00;98662.06;4211340;28;20016;-87
2024/02/10 07:50:30;;;;;;;;;;;;;;;7.16;100.00;98668.50;4212207;28;19946;-87
2024/02/10 07:52:53;;;;;;;;;;;;;;;7.17;100.00;98669.31;4183565;28;19932;-87
2024/02/10 07:55:18;;;;;;;;;;;;;;;7.18;100.00;98676.34;4197143;28;19935;-90
2024/02/10 07:57:43;;;;;;;;;;;;;;;7.18;100.00;98671.78;4185527;28;19935;-91
2024/02/10 08:00:06;;;;;;;;;;;;;;;7.20;100.00;98671.59;4212240;28;20294;-87
2024/02/10 08:02:30;;;;;;;;;;;;;;;7.20;100.00;98676.97;4211183;28;19931;-87
2024/02/10 08:04:58;;;;;;;;;;;;;;;7.22;100.00;98678.41;4184033;28;19995;-87
2024/02/10 08:07:24;;;;;;;;;;;;;;;7.24;100.00;98674.69;4213234;28;19969;-87
2024/02/10 08:09:48;;;;;;;;;;;;;;;7.24;100.00;98682.72;4191589;28;19966;-86
2024/02/10 08:12:10;;;;;;;;;;;;;;;7.24;100.00;98677.38;4211162;28;20295;-86
2024/02/10 08:14:31;;;;;;;;;;;;;;;7.25;100.00;98681.72;4178452;28;19962;-87
2024/02/10 08:16:54;;;;;;;;;;;;;;;7.26;100.00;98681.50;4210804;28;20027;-89
2024/02/10 08:19:18;;;;;;;;;;;;;;;7.27;100.00;98674.28;4190631;28;19932;-90
2024/02/10 08:21:42;;;;;;;;;;;;;;;7.27;100.00;98682.31;4182666;28;19951;-87
2024/02/10 08:24:05;;;;;;;;;;;;;;;7.29;100.00;98688.31;4208848;28;19947;-87
2024/02/10 08:26:27;;;;;;;;;;;;;;;7.28;100.00;98684.81;4193115;28;19931;-88
2024/02/10 08:28:51;;;;;;;;;;;;;;;7.29;100.00;98685.63;4184338;28;20372;-90
2024/02/10 08:31:13;;;;;;;;;;;;;;;7.30;100.00;98693.47;4183461;28;19937;-87
2024/02/10 08:33:34;;;;;;;;;;;;;;;7.32;100.00;98687.88;4197209;28;20010;-88
2024/02/10 08:35:58;;;;;;;;;;;;;;;7.33;100.00;98689.56;4198037;28;19947;-88
2024/02/10 08:38:21;;;;;;;;;;;;;;;7.33;100.00;98690.38;4185918;28;19931;-88
2024/02/10 08:40:44;;;;;;;;;;;;;;;7.34;100.00;98696.59;4181443;28;20524;-88
2024/02/10 08:43:08;;;;;;;;;;;;;;;7.37;100.00;98698.88;4210082;28;19931;-87
2024/02/10 08:45:30;;;;;;;;;;;;;;;7.37;100.00;98704.22;4196314;28;20023;-88
2024/02/10 08:47:51;;;;;;;;;;;;;;;7.38;100.00;98712.09;4211018;28;19930;-89
2024/02/10 08:50:12;;;;;;;;;;;;;;;7.40;100.00;98719.94;4206951;28;20584;-90
2024/02/10 08:52:33;;;;;;;;;;;;;;;7.41;100.00;98724.25;4205179;28;19983;-88
2024/02/10 08:54:56;;;;;;;;;;;;;;;7.43;100.00;98711.47;4193572;28;19935;-88
2024/02/10 08:57:19;;;;;;;;;;;;;;;7.46;100.00;98712.91;4180161;28;19982;-87
2024/02/10 08:59:45;;;;;;;;;;;;;;;7.49;100.00;98715.16;4194054;28;19955;-88
2024/02/10 09:02:08;;;;;;;;;;;;;;;7.51;100.00;98713.13;4192565;28;20003;-87
2024/02/10 09:04:30;;;;;;;;;;;;;;;7.52;100.00;98709.38;4173018;28;19932;-89
2024/02/10 09:06:51;;;;;;;;;;;;;;;7.54;100.00;98704.66;4191441;28;19936;-88
2024/02/10 09:09:14;;;;;;;;;;;;;;;7.55;100.00;98714.34;4192914;28;19967;-88
2024/02/10 09:11:39;;;;;;;;;;;;;;;7.57;100.00;98704.25;4196328;28;19978;-89
2024/02/10 09:14:00;;;;;;;;;;;;;;;7.58;100.00;98706.69;4190802;28;20003;-89
2024/02/10 09:16:26;;;;;;;;;;;;;;;7.61;100.00;98707.31;4181474;28;19966;-89
2024/02/10 09:18:48;;;;;;;;;;;;;;;7.61;100.00;98707.31;4181400;28;20016;-88
2024/02/10 09:21:09;;;;;;;;;;;;;;;7.64;100.00;98713.09;4194956;28;20335;-90
2024/02/10 09:23:30;;;;;;;;;;;;;;;7.61;100.00;98710.84;4195885;28;19936;-89
2024/02/10 09:25:53;;;;;;;;;;;;;;;7.66;100.00;98721.78;4195216;28;19935;-90
2024/02/10 09:28:14;;;;;;;;;;;;;;;7.67;100.00;98725.31;4176316;28;19936;-91
2024/02/10 09:30:36;;;;;;;;;;;;;;;7.69;100.00;98720.53;4181567;28;19991;-89
2024/02/10 09:32:57;;;;;;;;;;;;;;;7.71;100.00;98719.31;4182912;28;19935;-88
2024/02/10 09:35:23;;;;;;;;;;;;;;;7.72;100.00;98723.63;4197563;28;19936;-90
2024/02/10 09:37:46;;;;;;;;;;;;;;;7.70;100.00;98714.16;4196744;28;20321;-90
2024/02/10 09:40:11;;;;;;;;;;;;;;;7.74;100.00;98723.44;4195474;28;19947;-88
2024/02/10 09:42:32;;;;;;;;;;;;;;;7.74;100.00;98728.81;4196095;28;20009;-89
2024/02/10 09:44:55;;;;;;;;;;;;;;;7.76;100.00;98730.25;4197546;28;19931;-91
2024/02/10 09:47:16;;;;;;;;;;;;;;;7.77;100.00;98739.13;4179695;28;19932;-86
2024/02/10 09:52:29;;;;;;;;;;;;;;;7.80;100.00;98737.91;4191493;28;19950;-93
2024/02/10 09:55:07;;;;;;;;;;;;;;;7.82;100.00;98735.81;4195952;28;20294;-91
2024/02/10 09:57:46;;;;;;;;;;;;;;;7.82;100.00;98739.34;4188970;28;19935;-93
2024/02/10 10:00:37;;;;;;;;;;;;;;;;;;;;;
2024/02/10 10:09:08;;;;;;;;;;;;;;;7.89;100.00;98744.72;4184979;28;19938;-90
2024/02/10 10:11:30;;;;;;;;;;;;;;;7.90;100.00;98744.50;4189127;28;19931;-92
2024/02/10 10:13:51;;;;;;;;;;;;;;;7.89;100.00;98734.78;4182375;28;19970;-88
2024/02/10 10:16:12;;;;;;;;;;;;;;;7.93;100.00;98733.34;4207727;28;19948;-88
2024/02/10 10:18:33;;;;;;;;;;;;;;;7.94;100.00;98737.66;4194231;28;20032;-94
2024/02/10 10:21:00;;;;;;;;;;;;;;;7.92;100.00;98734.38;4195977;28;19935;-88
2024/02/10 10:23:31;;;;;;;;;;;;;;;7.97;100.00;98741.00;4204569;28;19943;-92
2024/02/10 10:25:55;;;;;;;;;;;;;;;7.98;100.00;98740.78;4196480;28;19936;-95
2024/02/10 10:28:20;;;;;;;;;;;;;;;8.00;100.00;98743.25;4198147;28;19971;-90
2024/02/10 10:33:33;;;;;;;;;;;;;;;8.01;100.00;98732.31;4223089;27;19916;-67
2024/02/10 10:35:35;;;;;;;;;;;;;;;8.01;100.00;98734.13;4223471;28;19939;-68
2024/02/10 10:37:37;;;;;;;;;;;;;;;8.05;100.00;98738.88;4223526;28;20026;-67
2024/02/10 10:39:42;;;;;;;;;;;;;;;8.07;100.00;98738.69;4223250;28;20027;-68
2024/02/10 10:41:47;;;;;;;;;;;;;;;8.08;100.00;98743.84;4223620;28;20023;-67
2024/02/10 10:43:49;;;;;;;;;;;;;;;8.06;100.00;98732.47;4223705;28;20371;-67
2024/02/10 10:45:51;;;;;;;;;;;;;;;8.07;100.00;98726.09;4224798;28;20005;-67
2024/02/10 10:47:53;;;;;;;;;;;;;;;8.09;100.00;98726.69;4221474;28;20023;-68
2024/02/10 10:49:57;;;;;;;;;;;;;;;8.10;100.00;98728.34;4226316;28;19967;-68
2024/02/10 10:52:05;;;;;;;;;;;;;;;8.12;100.00;98726.28;4226807;28;20019;-68
2024/02/10 10:54:09;;;;;;;;;;;;;;;8.14;100.00;98731.44;4227145;28;19979;-68
2024/02/10 10:56:19;;;;;;;;;;;;;;;8.16;100.00;98726.66;4226754;28;19991;-68
2024/02/10 10:58:22;;;;;;;;;;;;;;;8.19;100.00;98725.44;4223040;28;20014;-67
2024/02/10 11:00:25;;;;;;;;;;;;;;;8.20;100.00;98722.53;4223951;28;20067;-68
2024/02/10 11:02:28;;;;;;;;;;;;;;;8.21;100.00;98724.19;4224418;28;20027;-67
2024/02/10 11:04:33;;;;;;;;;;;;;;;8.23;100.00;98732.06;4222667;28;20643;-67
2024/02/10 11:06:37;;;;;;;;;;;;;;;8.24;100.00;98728.31;4221652;27;20014;-67
2024/02/10 11:08:41;;;;;;;;;;;;;;;8.25;100.00;98724.59;4223369;28;20742;-67
2024/02/10 11:10:45;;;;;;;;;;;;;;;8.26;100.00;98726.22;4222245;28;20007;-67
2024/02/10 11:12:52;;;;;;;;;;;;;;;8.26;100.00;98721.69;4221493;28;20026;-67
2024/02/10 11:14:56;;;;;;;;;;;;;;;8.28;100.00;98716.09;4223232;28;20329;-67
2024/02/10 11:16:58;;;;;;;;;;;;;;;8.30;100.00;98717.50;4222947;28;19931;-67
2024/02/10 11:19:00;;;;;;;;;;;;;;;8.34;100.00;98719.78;4220927;28;20015;-67
2024/02/10 11:21:09;;;;;;;;;;;;;;;8.35;100.00;98724.13;4223683;28;20014;-68
2024/02/10 11:23:19;;;;;;;;;;;;;;;8.37;100.00;98713.97;4222537;28;19942;-68
2024/02/10 11:25:22;;;;;;;;;;;;;;;8.39;100.00;98714.63;4223231;28;20031;-68
2024/02/10 11:27:24;;;;;;;;;;;;;;;8.41;100.00;98707.97;4222438;28;20051;-68
2024/02/10 11:29:26;;;;;;;;;;;;;;;8.43;100.00;98719.38;4221780;28;20015;-68
2024/02/10 11:31:28;;;;;;;;;;;;;;;8.48;100.00;98721.44;4223141;28;20014;-68
2024/02/10 11:33:30;;;;;;;;;;;;;;;8.52;100.00;98719.97;4222490;28;20019;-67
2024/02/10 11:38:01;;;;;;;;;;;;;;;8.61;100.00;98718.69;4212512;28;19950;-68
2024/02/10 11:40:10;;;;;;;;;;;;;;;8.64;100.00;98710.19;4222654;28;20022;-68
2024/02/10 11:42:16;;;;;;;;;;;;;;;8.70;100.00;98718.44;4221273;28;20015;-68
2024/02/10 11:44:18;;;;;;;;;;;;;;;8.74;100.00;98712.41;4214853;28;20039;-68
2024/02/10 11:46:20;;;;;;;;;;;;;;;8.79;100.00;98711.75;4211297;28;20023;-68
2024/02/10 11:48:22;;;;;;;;;;;;;;;8.82;100.00;98706.78;4211698;28;20023;-69
2024/02/10 11:50:27;;;;;;;;;;;;;;;8.87;100.00;98699.91;4210310;28;20026;-67
2024/02/10 11:52:32;;;;;;;;;;;;;;;8.89;100.00;98701.38;4211650;28;19975;-68
2024/02/10 11:54:36;;;;;;;;;;;;;;;8.93;100.00;98702.56;4209509;28;20007;-67
2024/02/10 11:56:44;;;;;;;;;;;;;;;8.96;100.00;98707.50;4210554;28;20015;-67
2024/02/10 11:58:48;;;;;;;;;;;;;;;8.99;100.00;98699.00;4211501;28;20039;-67
2024/02/10 12:00:53;;;;;;;;;;;;;;;9.02;100.00;98703.97;4209688;28;19963;-67
2024/02/10 12:02:55;;;;;;;;;;;;;;;9.05;100.00;98707.28;4209636;28;20016;-66
2024/02/10 12:04:57;;;;;;;;;;;;;;;9.07;100.00;98706.00;4208382;28;20027;-67
2024/02/10 12:06:59;;;;;;;;;;;;;;;9.11;100.00;98714.50;4209527;28;20023;-67
2024/02/10 12:09:03;;;;;;;;;;;;;;;9.13;100.00;98707.00;4210061;28;19972;-67
2024/02/10 12:11:05;;;;;;;;;;;;;;;9.15;100.00;98707.63;4209231;28;20036;-67
2024/02/10 12:13:10;;;;;;;;;;;;;;;9.18;100.00;98701.78;4208364;28;20035;-67
2024/02/10 12:15:12;;;;;;;;;;;;;;;9.21;100.00;98706.75;4209683;28;20028;-67
2024/02/10 12:17:16;;;;;;;;;;;;;;;9.24;100.00;98705.50;4209487;28;20019;-68
2024/02/10 12:19:17;;;;;;;;;;;;;;;9.27;100.00;98705.88;4210053;28;20393;-67
2024/02/10 12:21:23;;;;;;;;;;;;;;;9.29;100.00;98703.78;4210234;28;20052;-67
2024/02/10 12:23:27;;;;;;;;;;;;;;;9.32;100.00;98697.94;4209118;28;20036;-67